Johnsville, Kentucky
Current Conditions -  °F | °C
As of 8:15 PM on Tuesday 21 Oct 2014 (Local Time) from KFGX Reporting Station
Overcast Overcast  
Wind Chill: 44°   Ceiling: 2500
Heat Index: 49°   Visibility: 10mi
Dew Point: 44°   Wind: 13mph
Humidity: 83%   Direction: 350°N
Pressure: 30.13"   Gusts: 17mph
Location:  38.7475°N, 84.1516°W
Report Text: KFGX 220015Z AUTO 35011G15KT 10SM SCT020 BKN025 OVC035 09/07 A3013 RMK AO2 T00930066
Loading
Personal Weather Stations






























Interactive Weather Map
Tropical Storm Tracking
New forecast layout! Learn more

10-Day Weather Forecast

Advertisements
Track Severe Weather on mobile